Aérodrome :
LOGIN :

S'inscrire | Disclaimer

   EN    FR    IT 

 










Légende :    VFR   VFR Marginal   IFR   IFR Intensif   IFR Très Intensif
Visi : 
Plafond : 
>= 8 km
>= 3000ft
5 à 8 km
1000 à 3000 ft
1500m à 5 km
500 à 1000 ft
800 à 1500m
200 à 500 ft
< 800m
< 200 ft
Symboles :   Orages  Brouillard  Fortes neiges  Fortes précipitations  Vent > 20 kt
SIGMETs :   Divers  Orages  Givrage  Turbulence  Onde Orograph.  Cendres Volcan.







- Altitude de l'aérodrome : 309 ft
- Code IATA : FNI
- Voir les cartes d'approche


LFTW - Nîmes Garons

DERNIER METAR :
  • 230500Z AUTO 06003KT 4400 BR NSC 22/22 Q1019 BECMG 9999 NSW

METARs EXPIRÉS :
  • 230430Z AUTO 05002KT 3300 BR NSC 22/21 Q1019 BECMG 9999 NSW
  • 230400Z AUTO 06003KT 4500 BR NSC 22/22 Q1019 BECMG 9999 NSW
  • 230330Z AUTO 02003KT 3400 BR NSC 22/21 Q1019 BECMG 9999 NSW
  • 230300Z AUTO VRB02KT 4800 BR NSC 22/21 Q1019 NOSIG
  • 230230Z AUTO VRB02KT 4600 BR NSC 22/21 Q1019 NOSIG

TAF AMD TAF LFTW
Valide du 23 à 05h jusqu'au 24 à 03h UTC


230510Z 2305/2403 VRB03KT CAVOK
TEMPO 2305/2306 3500 BR
TEMPO 2311/2317 20010KT
Pas de NOTAMs connus pour ce terrain.



MET'MAP, la Météo Aéronautique d'un coup d'oeil ! - Copyright ORBIFLY Décembre 2007 - Disclaimer

ORBIFLY MET'MAP TEAM :

Programmation & Développement : Alexandra Zaïnal
Conception & Développement : Baudouin d'Aumeries
Co-Programmation & Développement : Marc-Olivier Méhu
Soutien technique & logistique : Manuel Goepfert

Contact : metmap@orbifly.com




SOURCES & CREDITS :

   NOAA